PWSweather.com
Personal Weather Stations
Station Observations
46800
XativaES 46800

XativaES 46800

Lat: 38.9917502, Lon: -0.5136488000000554

Elevation: 103

Station Type: Davis Vantage Pro2 Aspirated

http://www.meteoxativa.es/

Latest ConditionsUpdated 9:45:00 PM GMT+01:01 Wednesday, Apr 24, 2019
Currently Today's Max Today's Min Today's Average
Temperature 64.8°F18.2°C 72.1°F22.3°C 50.7°F10.4°C 60.7°F15.9°C
Dew Point 47.3°F8.5°C 48.1°F8.9°C 38.2°F3.4°C 41.7°F5.4°C
Winds 6.9 mph SSW11.1 kmh SSW 11.5 mph -18.5 kmh - - 5.9 mph 9.5 kmh
Wind Gusts 10.4 mph16.7 kmh 18.4 mph29.6 kmh - -
Humidity 53% 63% 37% 51%
Pressure 29.83 in1010.2 mb 29.84 in1010.5 mb 29.68 in1005.1 mb -
Hour Temp Dew Point Humidity Winds Wind Gusts Pressure Precip Precip Rate Daily Precip Total
09:45 PM 64.8°F18.2°C 47.3°F8.5°C 53% 6.9 mph SSW11.1 kmh SSW 10.4 mph16.7 kmh 29.83 in1010.2 mb - 0.00 in0.0 mm 0.00 in0.0 mm
09:30 PM 65.1°F18.4°C 47.1°F8.4°C 52% 4.6 mph SW7.4 kmh SW 6.9 mph11.1 kmh 29.82 in1009.8 mb - 0.00 in0.0 mm 0.00 in0.0 mm
09:15 PM 65.5°F18.6°C 46.9°F8.3°C 51% 9.2 mph SW14.8 kmh SW 8.1 mph13.0 kmh 29.82 in1009.8 mb - 0.00 in0.0 mm 0.00 in0.0 mm
09:00 PM 65.4°F18.6°C 46.8°F8.2°C 51% 9.2 mph SSW14.8 kmh SSW 13.8 mph22.2 kmh 29.82 in1009.8 mb - 0.00 in0.0 mm 0.00 in0.0 mm
08:45 PM 64.8°F18.2°C 46.8°F8.2°C 52% 8.1 mph S13.0 kmh S 12.7 mph20.4 kmh 29.80 in1009.1 mb - 0.00 in0.0 mm 0.00 in0.0 mm
08:30 PM 64.9°F18.3°C 47.4°F8.6°C 53% 5.8 mph W9.3 kmh W 9.2 mph14.8 kmh 29.80 in1009.1 mb - 0.00 in0.0 mm 0.00 in0.0 mm
08:15 PM 65.2°F18.4°C 47.7°F8.7°C 53% 3.5 mph W5.6 kmh W 8.1 mph13.0 kmh 29.79 in1008.8 mb - 0.00 in0.0 mm 0.00 in0.0 mm
08:00 PM 65.8°F18.8°C 47.7°F8.7°C 52% 2.3 mph NNW3.7 kmh NNW 3.5 mph5.6 kmh 29.79 in1008.8 mb - 0.00 in0.0 mm 0.00 in0.0 mm
07:45 PM 66.4°F19.1°C 47.7°F8.7°C 51% 2.3 mph W3.7 kmh W 12.7 mph20.4 kmh 29.78 in1008.5 mb - 0.00 in0.0 mm 0.00 in0.0 mm
07:30 PM 67.4°F19.7°C 48.1°F8.9°C 50% 2.3 mph NNW3.7 kmh NNW 3.5 mph5.6 kmh 29.77 in1008.1 mb - 0.00 in0.0 mm 0.00 in0.0 mm
07:15 PM 68.2°F20.1°C 47.8°F8.8°C 48% 3.5 mph NNW5.6 kmh NNW 3.5 mph5.6 kmh 29.77 in1008.1 mb - 0.00 in0.0 mm 0.00 in0.0 mm
07:00 PM 68.9°F20.5°C 47.3°F8.5°C 46% 4.6 mph W7.4 kmh W 10.4 mph16.7 kmh 29.77 in1008.1 mb - 0.00 in0.0 mm 0.00 in0.0 mm
06:45 PM 69.5°F20.8°C 47.8°F8.8°C 46% 2.3 mph WSW3.7 kmh WSW 3.5 mph5.6 kmh 29.77 in1008.1 mb - 0.00 in0.0 mm 0.00 in0.0 mm
06:30 PM 70.0°F21.1°C 47.1°F8.4°C 44% 5.8 mph SW9.3 kmh SW 10.4 mph16.7 kmh 29.76 in1007.8 mb - 0.00 in0.0 mm 0.00 in0.0 mm
06:15 PM 70.1°F21.2°C 46.6°F8.1°C 43% 3.5 mph WNW5.6 kmh WNW 10.4 mph16.7 kmh 29.76 in1007.8 mb - 0.00 in0.0 mm 0.00 in0.0 mm
06:00 PM 69.7°F20.9°C 46.8°F8.2°C 44% 5.8 mph WSW9.3 kmh WSW 13.8 mph22.2 kmh 29.76 in1007.8 mb - 0.00 in0.0 mm 0.00 in0.0 mm
05:45 PM 69.9°F21.1°C 46.4°F8.0°C 43% 8.1 mph WSW13.0 kmh WSW 17.3 mph27.8 kmh 29.76 in1007.8 mb - 0.00 in0.0 mm 0.00 in0.0 mm
05:30 PM 70.2°F21.2°C 46.7°F8.2°C 43% 10.4 mph WSW16.7 kmh WSW 18.4 mph29.6 kmh 29.76 in1007.8 mb - 0.00 in0.0 mm 0.00 in0.0 mm
05:15 PM 70.8°F21.6°C 46.5°F8.1°C 42% 9.2 mph W14.8 kmh W 16.1 mph25.9 kmh 29.76 in1007.8 mb - 0.00 in0.0 mm 0.00 in0.0 mm
05:00 PM 71.2°F21.8°C 45.6°F7.6°C 40% 10.4 mph WSW16.7 kmh WSW 18.4 mph29.6 kmh 29.76 in1007.8 mb - 0.00 in0.0 mm 0.00 in0.0 mm
04:45 PM 71.6°F22.0°C 45.4°F7.4°C 39% 4.6 mph W7.4 kmh W 13.8 mph22.2 kmh 29.76 in1007.8 mb - 0.00 in0.0 mm 0.00 in0.0 mm
04:30 PM 72.1°F22.3°C 44.4°F6.9°C 37% 9.2 mph WSW14.8 kmh WSW 12.7 mph20.4 kmh 29.76 in1007.8 mb - 0.00 in0.0 mm 0.00 in0.0 mm
04:15 PM 71.5°F21.9°C 44.6°F7.0°C 38% 8.1 mph SW13.0 kmh SW 13.8 mph22.2 kmh 29.76 in1007.8 mb - 0.00 in0.0 mm 0.00 in0.0 mm
04:00 PM 71.5°F21.9°C 44.6°F7.0°C 38% 9.2 mph SW14.8 kmh SW 13.8 mph22.2 kmh 29.77 in1008.1 mb - 0.00 in0.0 mm 0.00 in0.0 mm
03:45 PM 71.8°F22.1°C 44.9°F7.2°C 38% 10.4 mph WSW16.7 kmh WSW 13.8 mph22.2 kmh 29.77 in1008.1 mb - 0.00 in0.0 mm 0.00 in0.0 mm
03:30 PM 71.0°F21.7°C 44.1°F6.7°C 38% 8.1 mph SW13.0 kmh SW 10.4 mph16.7 kmh 29.77 in1008.1 mb - 0.00 in0.0 mm 0.00 in0.0 mm
03:15 PM 70.6°F21.4°C 44.4°F6.9°C 39% 6.9 mph WSW11.1 kmh WSW 12.7 mph20.4 kmh 29.78 in1008.5 mb - 0.00 in0.0 mm 0.00 in0.0 mm
03:00 PM 70.5°F21.4°C 43.7°F6.5°C 38% 8.1 mph WSW13.0 kmh WSW 12.7 mph20.4 kmh 29.78 in1008.5 mb - 0.00 in0.0 mm 0.00 in0.0 mm
02:45 PM 69.9°F21.1°C 43.8°F6.6°C 39% 6.9 mph WSW11.1 kmh WSW 9.2 mph14.8 kmh 29.79 in1008.8 mb - 0.00 in0.0 mm 0.00 in0.0 mm
02:30 PM 69.2°F20.7°C 43.2°F6.2°C 39% 4.6 mph WSW7.4 kmh WSW 9.2 mph14.8 kmh 29.79 in1008.8 mb - 0.00 in0.0 mm 0.00 in0.0 mm
02:15 PM 69.2°F20.7°C 43.2°F6.2°C 39% 2.3 mph SW3.7 kmh SW 4.6 mph7.4 kmh 29.79 in1008.8 mb - 0.00 in0.0 mm 0.00 in0.0 mm
02:00 PM 68.5°F20.3°C 42.6°F5.9°C 39% 9.2 mph WSW14.8 kmh WSW 11.5 mph18.5 kmh 29.80 in1009.1 mb - 0.00 in0.0 mm 0.00 in0.0 mm
01:45 PM 68.2°F20.1°C 41.6°F5.3°C 38% 9.2 mph WSW14.8 kmh WSW 12.7 mph20.4 kmh 29.80 in1009.1 mb - 0.00 in0.0 mm 0.00 in0.0 mm
01:30 PM 67.6°F19.8°C 41.1°F5.1°C 38% 3.5 mph WSW5.6 kmh WSW 11.5 mph18.5 kmh 29.80 in1009.1 mb - 0.00 in0.0 mm 0.00 in0.0 mm
01:15 PM 67.5°F19.7°C 41.0°F5.0°C 38% 5.8 mph SW9.3 kmh SW 12.7 mph20.4 kmh 29.80 in1009.1 mb - 0.00 in0.0 mm 0.00 in0.0 mm
01:00 PM 67.0°F19.4°C 40.6°F4.8°C 38% 10.4 mph WSW16.7 kmh WSW 16.1 mph25.9 kmh 29.81 in1009.5 mb - 0.00 in0.0 mm 0.00 in0.0 mm
12:45 PM 66.3°F19.1°C 39.9°F4.4°C 38% 8.1 mph W13.0 kmh W 10.4 mph16.7 kmh 29.81 in1009.5 mb - 0.00 in0.0 mm 0.00 in0.0 mm
12:30 PM 65.7°F18.7°C 38.7°F3.7°C 37% 6.9 mph SW11.1 kmh SW 11.5 mph18.5 kmh 29.82 in1009.8 mb - 0.00 in0.0 mm 0.00 in0.0 mm
12:15 PM 65.5°F18.6°C 39.2°F4.0°C 38% 10.4 mph WSW16.7 kmh WSW 18.4 mph29.6 kmh 29.82 in1009.8 mb - 0.00 in0.0 mm 0.00 in0.0 mm
12:00 PM 64.4°F18.0°C 38.3°F3.5°C 38% 10.4 mph WSW16.7 kmh WSW 11.5 mph18.5 kmh 29.82 in1009.8 mb - 0.00 in0.0 mm 0.00 in0.0 mm
11:45 AM 63.7°F17.6°C 38.3°F3.5°C 39% 10.4 mph WSW16.7 kmh WSW 13.8 mph22.2 kmh 29.83 in1010.2 mb - 0.00 in0.0 mm 0.00 in0.0 mm
11:30 AM 62.9°F17.2°C 38.2°F3.4°C 40% 9.2 mph SW14.8 kmh SW 12.7 mph20.4 kmh 29.84 in1010.5 mb - 0.00 in0.0 mm 0.00 in0.0 mm
11:15 AM 62.5°F16.9°C 39.1°F3.9°C 42% 6.9 mph WSW11.1 kmh WSW 12.7 mph20.4 kmh 29.84 in1010.5 mb - 0.00 in0.0 mm 0.00 in0.0 mm
11:00 AM 62.1°F16.7°C 38.8°F3.8°C 42% 10.4 mph W16.7 kmh W 16.1 mph25.9 kmh 29.84 in1010.5 mb - 0.00 in0.0 mm 0.00 in0.0 mm
10:45 AM 61.3°F16.3°C 39.8°F4.3°C 45% 4.6 mph W7.4 kmh W 9.2 mph14.8 kmh 29.84 in1010.5 mb - 0.00 in0.0 mm 0.00 in0.0 mm
10:30 AM 60.8°F16.0°C 39.8°F4.3°C 46% 6.9 mph WSW11.1 kmh WSW 10.4 mph16.7 kmh 29.84 in1010.5 mb - 0.00 in0.0 mm 0.00 in0.0 mm
10:15 AM 60.1°F15.6°C 39.8°F4.3°C 47% 5.8 mph WSW9.3 kmh WSW 12.7 mph20.4 kmh 29.84 in1010.5 mb - 0.00 in0.0 mm 0.00 in0.0 mm
10:00 AM 59.4°F15.2°C 39.7°F4.3°C 48% 10.4 mph WSW16.7 kmh WSW 16.1 mph25.9 kmh 29.84 in1010.5 mb - 0.00 in0.0 mm 0.00 in0.0 mm
09:45 AM 58.5°F14.7°C 38.9°F3.8°C 48% 11.5 mph WSW18.5 kmh WSW 16.1 mph25.9 kmh 29.84 in1010.5 mb - 0.00 in0.0 mm 0.00 in0.0 mm
09:30 AM 57.9°F14.4°C 39.9°F4.4°C 51% 6.9 mph WSW11.1 kmh WSW 11.5 mph18.5 kmh 29.84 in1010.5 mb - 0.00 in0.0 mm 0.00 in0.0 mm
09:15 AM 56.6°F13.7°C 40.6°F4.8°C 55% 4.6 mph W7.4 kmh W 6.9 mph11.1 kmh 29.84 in1010.5 mb - 0.00 in0.0 mm 0.00 in0.0 mm
09:00 AM 55.6°F13.1°C 40.6°F4.8°C 57% 4.6 mph WSW7.4 kmh WSW 6.9 mph11.1 kmh 29.84 in1010.5 mb - 0.00 in0.0 mm 0.00 in0.0 mm
08:45 AM 55.2°F12.9°C 40.7°F4.8°C 58% 4.6 mph WSW7.4 kmh WSW 6.9 mph11.1 kmh 29.84 in1010.5 mb - 0.00 in0.0 mm 0.00 in0.0 mm
08:30 AM 53.9°F12.2°C 40.3°F4.6°C 60% 4.6 mph WSW7.4 kmh WSW 6.9 mph11.1 kmh 29.84 in1010.5 mb - 0.00 in0.0 mm 0.00 in0.0 mm
08:15 AM 52.9°F11.6°C 39.8°F4.3°C 61% 2.3 mph WSW3.7 kmh WSW 3.5 mph5.6 kmh 29.83 in1010.2 mb - 0.00 in0.0 mm 0.00 in0.0 mm
08:00 AM 52.9°F11.6°C 39.4°F4.1°C 60% 2.3 mph SSW3.7 kmh SSW 3.5 mph5.6 kmh 29.82 in1009.8 mb - 0.00 in0.0 mm 0.00 in0.0 mm
07:45 AM 52.9°F11.6°C 39.0°F3.9°C 59% 3.5 mph SW5.6 kmh SW 3.5 mph5.6 kmh 29.82 in1009.8 mb - 0.00 in0.0 mm 0.00 in0.0 mm
07:30 AM 52.9°F11.6°C 38.6°F3.7°C 58% 3.5 mph W5.6 kmh W 3.5 mph5.6 kmh 29.81 in1009.5 mb - 0.00 in0.0 mm 0.00 in0.0 mm
07:15 AM 52.5°F11.4°C 38.2°F3.4°C 58% 5.8 mph S9.3 kmh S 8.1 mph13.0 kmh 29.79 in1008.8 mb - 0.00 in0.0 mm 0.00 in0.0 mm
07:00 AM 52.0°F11.1°C 38.5°F3.6°C 60% 3.5 mph WSW5.6 kmh WSW 4.6 mph7.4 kmh 29.79 in1008.8 mb - 0.00 in0.0 mm 0.00 in0.0 mm
06:45 AM 51.4°F10.8°C 38.4°F3.6°C 61% 2.3 mph WSW3.7 kmh WSW 5.8 mph9.3 kmh 29.79 in1008.8 mb - 0.00 in0.0 mm 0.00 in0.0 mm
06:30 AM 51.2°F10.7°C 38.6°F3.7°C 62% 3.5 mph S5.6 kmh S 3.5 mph5.6 kmh 29.79 in1008.8 mb - 0.00 in0.0 mm 0.00 in0.0 mm
06:15 AM 51.1°F10.6°C 38.5°F3.6°C 62% 3.5 mph S5.6 kmh S 9.2 mph14.8 kmh 29.79 in1008.8 mb - 0.00 in0.0 mm 0.00 in0.0 mm
06:00 AM 50.7°F10.4°C 38.6°F3.7°C 63% 3.5 mph SE5.6 kmh SE 5.8 mph9.3 kmh 29.78 in1008.5 mb - 0.00 in0.0 mm 0.00 in0.0 mm
05:45 AM 50.9°F10.5°C 38.8°F3.8°C 63% 3.5 mph SSE5.6 kmh SSE 5.8 mph9.3 kmh 29.77 in1008.1 mb - 0.00 in0.0 mm 0.00 in0.0 mm
05:30 AM 51.6°F10.9°C 38.6°F3.7°C 61% 4.6 mph S7.4 kmh S 8.1 mph13.0 kmh 29.77 in1008.1 mb - 0.00 in0.0 mm 0.00 in0.0 mm
05:15 AM 51.6°F10.9°C 38.6°F3.7°C 61% 2.3 mph SSW3.7 kmh SSW 5.8 mph9.3 kmh 29.76 in1007.8 mb - 0.00 in0.0 mm 0.00 in0.0 mm
05:00 AM 51.3°F10.7°C 38.8°F3.8°C 62% 5.8 mph SSW9.3 kmh SSW 8.1 mph13.0 kmh 29.75 in1007.5 mb - 0.00 in0.0 mm 0.00 in0.0 mm
04:45 AM 50.9°F10.5°C 38.8°F3.8°C 63% 4.6 mph SW7.4 kmh SW 12.7 mph20.4 kmh 29.75 in1007.5 mb - 0.00 in0.0 mm 0.00 in0.0 mm
04:30 AM 51.5°F10.8°C 38.9°F3.8°C 62% 5.8 mph SW9.3 kmh SW 9.2 mph14.8 kmh 29.75 in1007.5 mb - 0.00 in0.0 mm 0.00 in0.0 mm
04:15 AM 51.7°F10.9°C 38.7°F3.7°C 61% 5.8 mph SW9.3 kmh SW 6.9 mph11.1 kmh 29.74 in1007.1 mb - 0.00 in0.0 mm 0.00 in0.0 mm
04:00 AM 51.5°F10.8°C 38.5°F3.6°C 61% 6.9 mph SW11.1 kmh SW 11.5 mph18.5 kmh 29.74 in1007.1 mb - 0.00 in0.0 mm 0.00 in0.0 mm
03:45 AM 51.3°F10.7°C 38.8°F3.8°C 62% 4.6 mph S7.4 kmh S 6.9 mph11.1 kmh 29.73 in1006.8 mb - 0.00 in0.0 mm 0.00 in0.0 mm
03:30 AM 51.6°F10.9°C 38.6°F3.7°C 61% 2.3 mph S3.7 kmh S 4.6 mph7.4 kmh 29.72 in1006.4 mb - 0.00 in0.0 mm 0.00 in0.0 mm
03:15 AM 51.9°F11.1°C 38.5°F3.6°C 60% 4.6 mph S7.4 kmh S 9.2 mph14.8 kmh 29.72 in1006.4 mb - 0.00 in0.0 mm 0.00 in0.0 mm
03:00 AM 52.2°F11.2°C 38.7°F3.7°C 60% 4.6 mph SSW7.4 kmh SSW 10.4 mph16.7 kmh 29.72 in1006.4 mb - 0.00 in0.0 mm 0.00 in0.0 mm
02:45 AM 52.3°F11.3°C 38.9°F3.8°C 60% 6.9 mph S11.1 kmh S 16.1 mph25.9 kmh 29.72 in1006.4 mb - 0.00 in0.0 mm 0.00 in0.0 mm
02:30 AM 52.1°F11.2°C 39.1°F3.9°C 61% 4.6 mph WSW7.4 kmh WSW 9.2 mph14.8 kmh 29.71 in1006.1 mb - 0.00 in0.0 mm 0.00 in0.0 mm
02:15 AM 52.3°F11.3°C 38.9°F3.8°C 60% 3.5 mph WSW5.6 kmh WSW 6.9 mph11.1 kmh 29.71 in1006.1 mb - 0.00 in0.0 mm 0.00 in0.0 mm
02:00 AM 52.6°F11.4°C 39.1°F3.9°C 60% 4.6 mph WSW7.4 kmh WSW 8.1 mph13.0 kmh 29.70 in1005.8 mb - 0.00 in0.0 mm 0.00 in0.0 mm
01:45 AM 52.5°F11.4°C 39.5°F4.2°C 61% 3.5 mph SW5.6 kmh SW 6.9 mph11.1 kmh 29.70 in1005.8 mb - 0.00 in0.0 mm 0.00 in0.0 mm
01:30 AM 52.8°F11.6°C 39.3°F4.1°C 60% 3.5 mph SW5.6 kmh SW 4.6 mph7.4 kmh 29.71 in1006.1 mb - 0.00 in0.0 mm 0.00 in0.0 mm
01:15 AM 53.3°F11.8°C 39.4°F4.1°C 59% 6.9 mph WSW11.1 kmh WSW 9.2 mph14.8 kmh 29.70 in1005.8 mb - 0.00 in0.0 mm 0.00 in0.0 mm
01:00 AM 53.6°F12.0°C 39.6°F4.2°C 59% 4.6 mph SW7.4 kmh SW 9.2 mph14.8 kmh 29.70 in1005.8 mb - 0.00 in0.0 mm 0.00 in0.0 mm
12:45 AM 53.7°F12.1°C 39.7°F4.3°C 59% 2.3 mph SW3.7 kmh SW 5.8 mph9.3 kmh 29.70 in1005.8 mb - 0.00 in0.0 mm 0.00 in0.0 mm
12:30 AM 54.0°F12.2°C 40.0°F4.4°C 59% 5.8 mph WSW9.3 kmh WSW 6.9 mph11.1 kmh 29.69 in1005.4 mb - 0.00 in0.0 mm 0.00 in0.0 mm
12:15 AM 54.1°F12.3°C 40.1°F4.5°C 59% 5.8 mph SW9.3 kmh SW 9.2 mph14.8 kmh 29.69 in1005.4 mb - 0.00 in0.0 mm 0.00 in0.0 mm
12:00 AM 54.6°F12.6°C 40.1°F4.5°C 58% 6.9 mph SW11.1 kmh SW 10.4 mph16.7 kmh 29.68 in1005.1 mb - 0.00 in0.0 mm 0.00 in0.0 mm